sensor_id;sensor_type;location;lat;lon;timestamp;P1;durP1;ratioP1;P2;durP2;ratioP2
35444;SDS011;21562;49.476;6.086;2024-03-22T00:01:45;9.35;;;2.83;;
35444;SDS011;21562;49.476;6.086;2024-03-22T00:04:11;5.45;;;2.90;;
35444;SDS011;21562;49.476;6.086;2024-03-22T00:06:37;4.88;;;2.47;;
35444;SDS011;21562;49.476;6.086;2024-03-22T00:09:04;5.65;;;2.80;;
35444;SDS011;21562;49.476;6.086;2024-03-22T00:11:30;6.47;;;2.78;;
35444;SDS011;21562;49.476;6.086;2024-03-22T00:13:55;5.88;;;2.70;;
35444;SDS011;21562;49.476;6.086;2024-03-22T00:16:21;12.57;;;3.38;;
35444;SDS011;21562;49.476;6.086;2024-03-22T00:18:47;9.20;;;2.72;;
35444;SDS011;21562;49.476;6.086;2024-03-22T00:21:13;7.72;;;2.83;;
35444;SDS011;21562;49.476;6.086;2024-03-22T00:23:39;5.68;;;2.80;;
35444;SDS011;21562;49.476;6.086;2024-03-22T00:26:05;5.53;;;2.88;;
35444;SDS011;21562;49.476;6.086;2024-03-22T00:28:30;8.25;;;3.15;;
35444;SDS011;21562;49.476;6.086;2024-03-22T00:30:56;13.00;;;2.50;;
35444;SDS011;21562;49.476;6.086;2024-03-22T00:33:22;5.70;;;2.38;;
35444;SDS011;21562;49.476;6.086;2024-03-22T00:35:47;8.02;;;2.97;;
35444;SDS011;21562;49.476;6.086;2024-03-22T00:38:13;6.63;;;2.88;;
35444;SDS011;21562;49.476;6.086;2024-03-22T00:40:38;5.38;;;2.50;;
35444;SDS011;21562;49.476;6.086;2024-03-22T00:43:04;9.10;;;3.80;;
35444;SDS011;21562;49.476;6.086;2024-03-22T00:45:31;5.00;;;2.65;;
35444;SDS011;21562;49.476;6.086;2024-03-22T00:47:57;5.88;;;2.92;;
35444;SDS011;21562;49.476;6.086;2024-03-22T00:50:23;9.00;;;2.95;;
35444;SDS011;21562;49.476;6.086;2024-03-22T00:52:50;6.45;;;2.45;;
35444;SDS011;21562;49.476;6.086;2024-03-22T00:55:15;5.78;;;2.80;;
35444;SDS011;21562;49.476;6.086;2024-03-22T00:57:41;6.47;;;3.30;;
35444;SDS011;21562;49.476;6.086;2024-03-22T01:00:07;4.72;;;2.65;;
35444;SDS011;21562;49.476;6.086;2024-03-22T01:02:33;6.13;;;3.33;;
35444;SDS011;21562;49.476;6.086;2024-03-22T01:04:59;9.88;;;3.63;;
35444;SDS011;21562;49.476;6.086;2024-03-22T01:07:24;7.18;;;3.30;;
35444;SDS011;21562;49.476;6.086;2024-03-22T01:09:50;7.53;;;2.92;;
35444;SDS011;21562;49.476;6.086;2024-03-22T01:12:16;5.68;;;2.92;;
35444;SDS011;21562;49.476;6.086;2024-03-22T01:14:41;8.85;;;3.50;;
35444;SDS011;21562;49.476;6.086;2024-03-22T01:17:07;5.68;;;2.65;;
35444;SDS011;21562;49.476;6.086;2024-03-22T01:19:33;8.15;;;3.70;;
35444;SDS011;21562;49.476;6.086;2024-03-22T01:21:58;8.90;;;3.80;;
35444;SDS011;21562;49.476;6.086;2024-03-22T01:24:24;8.18;;;3.80;;
35444;SDS011;21562;49.476;6.086;2024-03-22T01:26:50;7.45;;;3.75;;
35444;SDS011;21562;49.476;6.086;2024-03-22T01:29:15;12.13;;;4.05;;
35444;SDS011;21562;49.476;6.086;2024-03-22T01:31:41;9.68;;;4.15;;
35444;SDS011;21562;49.476;6.086;2024-03-22T01:34:07;10.15;;;3.78;;
35444;SDS011;21562;49.476;6.086;2024-03-22T01:36:33;9.18;;;4.43;;
35444;SDS011;21562;49.476;6.086;2024-03-22T01:38:59;8.45;;;4.20;;
35444;SDS011;21562;49.476;6.086;2024-03-22T01:41:24;6.75;;;3.72;;
35444;SDS011;21562;49.476;6.086;2024-03-22T01:43:50;8.85;;;3.63;;
35444;SDS011;21562;49.476;6.086;2024-03-22T01:46:16;7.40;;;3.83;;
35444;SDS011;21562;49.476;6.086;2024-03-22T01:48:42;6.63;;;4.18;;
35444;SDS011;21562;49.476;6.086;2024-03-22T01:51:07;11.77;;;4.47;;
35444;SDS011;21562;49.476;6.086;2024-03-22T01:53:34;7.25;;;4.05;;
35444;SDS011;21562;49.476;6.086;2024-03-22T01:56:01;9.07;;;4.05;;
35444;SDS011;21562;49.476;6.086;2024-03-22T01:58:27;7.75;;;3.90;;
35444;SDS011;21562;49.476;6.086;2024-03-22T02:00:53;6.82;;;3.85;;
35444;SDS011;21562;49.476;6.086;2024-03-22T02:03:19;8.75;;;4.03;;
35444;SDS011;21562;49.476;6.086;2024-03-22T02:05:45;11.75;;;3.88;;
35444;SDS011;21562;49.476;6.086;2024-03-22T02:08:11;8.95;;;4.18;;
35444;SDS011;21562;49.476;6.086;2024-03-22T02:10:37;7.00;;;3.75;;
35444;SDS011;21562;49.476;6.086;2024-03-22T02:13:02;10.73;;;3.75;;
35444;SDS011;21562;49.476;6.086;2024-03-22T02:15:28;10.25;;;3.67;;
35444;SDS011;21562;49.476;6.086;2024-03-22T02:17:54;8.32;;;3.70;;
35444;SDS011;21562;49.476;6.086;2024-03-22T02:20:20;9.50;;;4.28;;
35444;SDS011;21562;49.476;6.086;2024-03-22T02:22:46;10.32;;;4.30;;
35444;SDS011;21562;49.476;6.086;2024-03-22T02:25:12;6.70;;;3.38;;
35444;SDS011;21562;49.476;6.086;2024-03-22T02:27:38;8.35;;;4.00;;
35444;SDS011;21562;49.476;6.086;2024-03-22T02:30:04;8.18;;;3.92;;
35444;SDS011;21562;49.476;6.086;2024-03-22T02:32:30;8.40;;;4.00;;
35444;SDS011;21562;49.476;6.086;2024-03-22T02:34:56;8.48;;;4.10;;
35444;SDS011;21562;49.476;6.086;2024-03-22T02:37:21;10.48;;;4.10;;
35444;SDS011;21562;49.476;6.086;2024-03-22T02:39:47;13.07;;;4.15;;
35444;SDS011;21562;49.476;6.086;2024-03-22T02:42:13;7.85;;;3.92;;
35444;SDS011;21562;49.476;6.086;2024-03-22T02:44:38;13.40;;;4.95;;
35444;SDS011;21562;49.476;6.086;2024-03-22T02:47:08;8.15;;;4.35;;
35444;SDS011;21562;49.476;6.086;2024-03-22T02:49:35;6.57;;;4.07;;
35444;SDS011;21562;49.476;6.086;2024-03-22T02:52:00;11.35;;;4.80;;
35444;SDS011;21562;49.476;6.086;2024-03-22T02:54:26;10.27;;;4.68;;
35444;SDS011;21562;49.476;6.086;2024-03-22T02:56:52;10.27;;;4.70;;
35444;SDS011;21562;49.476;6.086;2024-03-22T02:59:17;8.70;;;4.65;;
35444;SDS011;21562;49.476;6.086;2024-03-22T03:01:43;9.38;;;4.50;;
35444;SDS011;21562;49.476;6.086;2024-03-22T03:04:09;10.45;;;4.13;;
35444;SDS011;21562;49.476;6.086;2024-03-22T03:06:34;7.93;;;4.43;;
35444;SDS011;21562;49.476;6.086;2024-03-22T03:09:00;8.75;;;4.40;;
35444;SDS011;21562;49.476;6.086;2024-03-22T03:11:26;7.00;;;4.53;;
35444;SDS011;21562;49.476;6.086;2024-03-22T03:13:52;12.38;;;4.22;;
35444;SDS011;21562;49.476;6.086;2024-03-22T03:16:17;13.20;;;5.25;;
35444;SDS011;21562;49.476;6.086;2024-03-22T03:18:43;9.27;;;4.55;;
35444;SDS011;21562;49.476;6.086;2024-03-22T03:21:09;8.02;;;4.50;;
35444;SDS011;21562;49.476;6.086;2024-03-22T03:23:34;9.23;;;4.47;;
35444;SDS011;21562;49.476;6.086;2024-03-22T03:26:00;10.15;;;5.07;;
35444;SDS011;21562;49.476;6.086;2024-03-22T03:28:26;7.47;;;4.15;;
35444;SDS011;21562;49.476;6.086;2024-03-22T03:30:52;16.98;;;6.03;;
35444;SDS011;21562;49.476;6.086;2024-03-22T03:33:18;9.18;;;4.68;;
35444;SDS011;21562;49.476;6.086;2024-03-22T03:35:47;13.00;;;5.30;;
35444;SDS011;21562;49.476;6.086;2024-03-22T03:38:13;10.60;;;4.55;;
35444;SDS011;21562;49.476;6.086;2024-03-22T03:40:38;7.18;;;4.13;;
35444;SDS011;21562;49.476;6.086;2024-03-22T03:43:04;9.13;;;4.18;;
35444;SDS011;21562;49.476;6.086;2024-03-22T03:45:30;6.90;;;3.88;;
35444;SDS011;21562;49.476;6.086;2024-03-22T03:47:55;12.93;;;4.55;;
35444;SDS011;21562;49.476;6.086;2024-03-22T03:50:21;9.10;;;4.82;;
35444;SDS011;21562;49.476;6.086;2024-03-22T03:52:47;6.95;;;4.05;;
35444;SDS011;21562;49.476;6.086;2024-03-22T03:55:13;6.70;;;4.28;;
35444;SDS011;21562;49.476;6.086;2024-03-22T03:57:39;11.88;;;4.70;;
35444;SDS011;21562;49.476;6.086;2024-03-22T04:00:05;9.88;;;4.32;;
35444;SDS011;21562;49.476;6.086;2024-03-22T04:02:31;5.70;;;3.78;;
35444;SDS011;21562;49.476;6.086;2024-03-22T04:04:56;6.13;;;3.83;;
35444;SDS011;21562;49.476;6.086;2024-03-22T04:07:22;8.68;;;4.70;;
35444;SDS011;21562;49.476;6.086;2024-03-22T04:09:48;7.85;;;4.10;;
35444;SDS011;21562;49.476;6.086;2024-03-22T04:12:14;7.22;;;3.83;;
35444;SDS011;21562;49.476;6.086;2024-03-22T04:14:39;10.25;;;4.70;;
35444;SDS011;21562;49.476;6.086;2024-03-22T04:17:05;10.40;;;4.00;;
35444;SDS011;21562;49.476;6.086;2024-03-22T04:19:31;8.88;;;4.82;;
35444;SDS011;21562;49.476;6.086;2024-03-22T04:21:56;11.98;;;5.40;;
35444;SDS011;21562;49.476;6.086;2024-03-22T04:24:22;10.80;;;5.53;;
35444;SDS011;21562;49.476;6.086;2024-03-22T04:26:48;12.27;;;5.88;;
35444;SDS011;21562;49.476;6.086;2024-03-22T04:29:13;12.77;;;6.43;;
35444;SDS011;21562;49.476;6.086;2024-03-22T04:31:39;13.05;;;7.47;;
35444;SDS011;21562;49.476;6.086;2024-03-22T04:34:05;14.50;;;7.40;;
35444;SDS011;21562;49.476;6.086;2024-03-22T04:36:32;20.38;;;7.05;;
35444;SDS011;21562;49.476;6.086;2024-03-22T04:38:58;12.15;;;6.93;;
35444;SDS011;21562;49.476;6.086;2024-03-22T04:41:24;14.70;;;6.93;;
35444;SDS011;21562;49.476;6.086;2024-03-22T04:43:50;16.83;;;7.72;;
35444;SDS011;21562;49.476;6.086;2024-03-22T04:46:15;15.38;;;7.55;;
35444;SDS011;21562;49.476;6.086;2024-03-22T04:48:41;12.65;;;6.78;;
35444;SDS011;21562;49.476;6.086;2024-03-22T04:51:07;11.38;;;6.72;;
35444;SDS011;21562;49.476;6.086;2024-03-22T04:53:32;11.90;;;6.95;;
35444;SDS011;21562;49.476;6.086;2024-03-22T04:55:58;14.75;;;6.85;;
35444;SDS011;21562;49.476;6.086;2024-03-22T04:58:24;11.80;;;6.35;;
35444;SDS011;21562;49.476;6.086;2024-03-22T05:00:55;12.50;;;6.72;;
35444;SDS011;21562;49.476;6.086;2024-03-22T05:03:22;11.15;;;6.57;;
35444;SDS011;21562;49.476;6.086;2024-03-22T05:05:49;10.95;;;6.45;;
35444;SDS011;21562;49.476;6.086;2024-03-22T05:08:15;12.65;;;7.03;;
35444;SDS011;21562;49.476;6.086;2024-03-22T05:10:40;15.52;;;8.05;;
35444;SDS011;21562;49.476;6.086;2024-03-22T05:13:07;14.38;;;7.75;;
35444;SDS011;21562;49.476;6.086;2024-03-22T05:15:32;13.77;;;7.22;;
35444;SDS011;21562;49.476;6.086;2024-03-22T05:17:58;11.20;;;6.72;;
35444;SDS011;21562;49.476;6.086;2024-03-22T05:20:24;15.23;;;7.40;;
35444;SDS011;21562;49.476;6.086;2024-03-22T05:22:50;12.88;;;7.18;;
35444;SDS011;21562;49.476;6.086;2024-03-22T05:25:16;13.88;;;7.38;;
35444;SDS011;21562;49.476;6.086;2024-03-22T05:27:42;17.23;;;7.82;;
35444;SDS011;21562;49.476;6.086;2024-03-22T05:30:11;14.35;;;7.50;;
35444;SDS011;21562;49.476;6.086;2024-03-22T05:32:40;12.23;;;7.47;;
35444;SDS011;21562;49.476;6.086;2024-03-22T05:35:06;13.85;;;7.45;;
35444;SDS011;21562;49.476;6.086;2024-03-22T05:37:32;19.83;;;8.77;;
35444;SDS011;21562;49.476;6.086;2024-03-22T05:39:59;13.52;;;8.02;;
35444;SDS011;21562;49.476;6.086;2024-03-22T05:42:25;14.32;;;8.10;;
35444;SDS011;21562;49.476;6.086;2024-03-22T05:44:51;14.98;;;8.02;;
35444;SDS011;21562;49.476;6.086;2024-03-22T05:47:17;16.98;;;8.73;;
35444;SDS011;21562;49.476;6.086;2024-03-22T05:49:44;14.00;;;8.10;;
35444;SDS011;21562;49.476;6.086;2024-03-22T05:52:10;17.67;;;8.68;;
35444;SDS011;21562;49.476;6.086;2024-03-22T05:54:37;18.02;;;8.13;;
35444;SDS011;21562;49.476;6.086;2024-03-22T05:57:02;16.58;;;9.15;;
35444;SDS011;21562;49.476;6.086;2024-03-22T05:59:30;17.30;;;8.95;;
35444;SDS011;21562;49.476;6.086;2024-03-22T06:01:56;14.27;;;8.57;;
35444;SDS011;21562;49.476;6.086;2024-03-22T06:04:22;15.90;;;8.77;;
35444;SDS011;21562;49.476;6.086;2024-03-22T06:06:48;17.45;;;9.30;;
35444;SDS011;21562;49.476;6.086;2024-03-22T06:09:14;20.90;;;8.50;;
35444;SDS011;21562;49.476;6.086;2024-03-22T06:11:49;19.02;;;9.38;;
35444;SDS011;21562;49.476;6.086;2024-03-22T06:14:15;19.20;;;9.27;;
35444;SDS011;21562;49.476;6.086;2024-03-22T06:16:41;19.45;;;9.07;;
35444;SDS011;21562;49.476;6.086;2024-03-22T06:19:06;14.73;;;7.90;;
35444;SDS011;21562;49.476;6.086;2024-03-22T06:21:32;19.77;;;8.25;;
35444;SDS011;21562;49.476;6.086;2024-03-22T06:23:58;16.95;;;8.15;;
35444;SDS011;21562;49.476;6.086;2024-03-22T06:26:23;16.08;;;8.50;;
35444;SDS011;21562;49.476;6.086;2024-03-22T06:28:49;17.45;;;8.93;;
35444;SDS011;21562;49.476;6.086;2024-03-22T06:31:15;17.73;;;9.35;;
35444;SDS011;21562;49.476;6.086;2024-03-22T06:33:40;20.10;;;9.75;;
35444;SDS011;21562;49.476;6.086;2024-03-22T06:36:06;18.35;;;9.10;;
35444;SDS011;21562;49.476;6.086;2024-03-22T06:38:32;16.55;;;8.90;;
35444;SDS011;21562;49.476;6.086;2024-03-22T06:40:58;19.13;;;8.90;;
35444;SDS011;21562;49.476;6.086;2024-03-22T06:43:24;16.33;;;9.07;;
35444;SDS011;21562;49.476;6.086;2024-03-22T06:45:50;16.15;;;9.00;;
35444;SDS011;21562;49.476;6.086;2024-03-22T06:48:16;15.27;;;8.68;;
35444;SDS011;21562;49.476;6.086;2024-03-22T06:50:42;15.80;;;8.32;;
35444;SDS011;21562;49.476;6.086;2024-03-22T06:53:07;14.57;;;8.30;;
35444;SDS011;21562;49.476;6.086;2024-03-22T06:55:35;17.45;;;8.50;;
35444;SDS011;21562;49.476;6.086;2024-03-22T06:58:01;13.32;;;7.65;;
35444;SDS011;21562;49.476;6.086;2024-03-22T07:00:27;15.73;;;8.82;;
35444;SDS011;21562;49.476;6.086;2024-03-22T07:02:53;16.40;;;8.60;;
35444;SDS011;21562;49.476;6.086;2024-03-22T07:05:20;17.33;;;8.13;;
35444;SDS011;21562;49.476;6.086;2024-03-22T07:07:47;18.00;;;8.25;;
35444;SDS011;21562;49.476;6.086;2024-03-22T07:10:13;16.55;;;7.72;;
35444;SDS011;21562;49.476;6.086;2024-03-22T07:12:38;17.63;;;8.85;;
35444;SDS011;21562;49.476;6.086;2024-03-22T07:15:04;15.63;;;7.95;;
35444;SDS011;21562;49.476;6.086;2024-03-22T07:17:30;13.77;;;7.93;;
35444;SDS011;21562;49.476;6.086;2024-03-22T07:19:56;19.60;;;9.23;;
35444;SDS011;21562;49.476;6.086;2024-03-22T07:22:22;12.75;;;8.05;;
35444;SDS011;21562;49.476;6.086;2024-03-22T07:24:48;18.98;;;8.18;;
35444;SDS011;21562;49.476;6.086;2024-03-22T07:27:14;15.63;;;8.40;;
35444;SDS011;21562;49.476;6.086;2024-03-22T07:29:43;16.90;;;7.90;;
35444;SDS011;21562;49.476;6.086;2024-03-22T07:32:09;15.15;;;8.05;;
35444;SDS011;21562;49.476;6.086;2024-03-22T07:34:35;12.77;;;7.78;;
35444;SDS011;21562;49.476;6.086;2024-03-22T07:37:01;16.48;;;7.65;;
35444;SDS011;21562;49.476;6.086;2024-03-22T07:39:27;17.02;;;8.38;;
35444;SDS011;21562;49.476;6.086;2024-03-22T07:41:52;18.63;;;9.45;;
35444;SDS011;21562;49.476;6.086;2024-03-22T07:44:18;14.82;;;8.15;;
35444;SDS011;21562;49.476;6.086;2024-03-22T07:46:49;15.07;;;8.70;;
35444;SDS011;21562;49.476;6.086;2024-03-22T07:49:15;20.25;;;9.25;;
35444;SDS011;21562;49.476;6.086;2024-03-22T07:51:40;19.52;;;8.60;;
35444;SDS011;21562;49.476;6.086;2024-03-22T07:54:06;22.10;;;9.25;;
35444;SDS011;21562;49.476;6.086;2024-03-22T07:56:32;20.95;;;8.98;;
35444;SDS011;21562;49.476;6.086;2024-03-22T07:58:57;17.33;;;9.20;;
35444;SDS011;21562;49.476;6.086;2024-03-22T08:01:23;21.27;;;10.32;;
35444;SDS011;21562;49.476;6.086;2024-03-22T08:03:50;17.77;;;8.88;;
35444;SDS011;21562;49.476;6.086;2024-03-22T08:06:16;23.77;;;9.82;;
35444;SDS011;21562;49.476;6.086;2024-03-22T08:08:42;24.48;;;5.80;;
35444;SDS011;21562;49.476;6.086;2024-03-22T08:11:07;18.48;;;9.05;;
35444;SDS011;21562;49.476;6.086;2024-03-22T08:13:34;15.95;;;8.10;;
35444;SDS011;21562;49.476;6.086;2024-03-22T08:16:00;21.90;;;9.35;;
35444;SDS011;21562;49.476;6.086;2024-03-22T08:18:25;17.77;;;9.35;;
35444;SDS011;21562;49.476;6.086;2024-03-22T08:20:51;15.93;;;9.85;;
35444;SDS011;21562;49.476;6.086;2024-03-22T08:23:17;16.92;;;9.15;;
35444;SDS011;21562;49.476;6.086;2024-03-22T08:25:45;16.67;;;9.65;;
35444;SDS011;21562;49.476;6.086;2024-03-22T08:28:11;17.17;;;11.20;;
35444;SDS011;21562;49.476;6.086;2024-03-22T08:30:38;19.27;;;10.27;;
35444;SDS011;21562;49.476;6.086;2024-03-22T08:33:05;19.15;;;10.07;;
35444;SDS011;21562;49.476;6.086;2024-03-22T08:35:30;25.25;;;11.02;;
35444;SDS011;21562;49.476;6.086;2024-03-22T08:37:56;23.75;;;11.25;;
35444;SDS011;21562;49.476;6.086;2024-03-22T08:40:23;19.60;;;9.48;;
35444;SDS011;21562;49.476;6.086;2024-03-22T08:42:49;26.13;;;11.55;;
35444;SDS011;21562;49.476;6.086;2024-03-22T08:45:15;16.70;;;9.70;;
35444;SDS011;21562;49.476;6.086;2024-03-22T08:47:41;19.70;;;10.98;;
35444;SDS011;21562;49.476;6.086;2024-03-22T08:50:08;22.73;;;9.02;;
35444;SDS011;21562;49.476;6.086;2024-03-22T08:52:34;20.50;;;9.60;;
35444;SDS011;21562;49.476;6.086;2024-03-22T08:55:01;22.63;;;12.00;;
35444;SDS011;21562;49.476;6.086;2024-03-22T08:57:27;23.20;;;12.13;;
35444;SDS011;21562;49.476;6.086;2024-03-22T08:59:52;27.83;;;15.10;;
35444;SDS011;21562;49.476;6.086;2024-03-22T09:02:18;26.15;;;14.50;;
35444;SDS011;21562;49.476;6.086;2024-03-22T09:04:44;25.10;;;15.23;;
35444;SDS011;21562;49.476;6.086;2024-03-22T09:07:11;27.00;;;14.23;;
35444;SDS011;21562;49.476;6.086;2024-03-22T09:09:37;27.60;;;15.20;;
35444;SDS011;21562;49.476;6.086;2024-03-22T09:12:03;25.65;;;15.77;;
35444;SDS011;21562;49.476;6.086;2024-03-22T09:14:29;25.95;;;14.80;;
35444;SDS011;21562;49.476;6.086;2024-03-22T09:16:54;28.20;;;16.02;;
35444;SDS011;21562;49.476;6.086;2024-03-22T09:19:20;32.08;;;15.13;;
35444;SDS011;21562;49.476;6.086;2024-03-22T09:21:46;25.80;;;14.68;;
35444;SDS011;21562;49.476;6.086;2024-03-22T09:24:13;28.75;;;14.27;;
35444;SDS011;21562;49.476;6.086;2024-03-22T09:26:39;20.77;;;10.05;;
35444;SDS011;21562;49.476;6.086;2024-03-22T09:29:04;24.23;;;14.55;;
35444;SDS011;21562;49.476;6.086;2024-03-22T09:31:30;24.23;;;10.63;;
35444;SDS011;21562;49.476;6.086;2024-03-22T09:33:57;21.73;;;11.98;;
35444;SDS011;21562;49.476;6.086;2024-03-22T09:36:23;26.38;;;12.40;;
35444;SDS011;21562;49.476;6.086;2024-03-22T09:38:49;18.55;;;11.60;;
35444;SDS011;21562;49.476;6.086;2024-03-22T09:41:15;28.50;;;14.80;;
35444;SDS011;21562;49.476;6.086;2024-03-22T09:43:48;27.80;;;12.90;;
35444;SDS011;21562;49.476;6.086;2024-03-22T09:46:16;24.38;;;14.93;;
35444;SDS011;21562;49.476;6.086;2024-03-22T09:48:44;25.70;;;14.48;;
35444;SDS011;21562;49.476;6.086;2024-03-22T09:51:12;25.33;;;13.73;;
35444;SDS011;21562;49.476;6.086;2024-03-22T09:53:40;30.15;;;14.98;;
35444;SDS011;21562;49.476;6.086;2024-03-22T09:56:07;24.30;;;12.90;;
35444;SDS011;21562;49.476;6.086;2024-03-22T09:58:36;25.50;;;11.35;;
35444;SDS011;21562;49.476;6.086;2024-03-22T10:01:02;22.25;;;9.05;;
35444;SDS011;21562;49.476;6.086;2024-03-22T10:03:29;21.63;;;8.80;;
35444;SDS011;21562;49.476;6.086;2024-03-22T10:05:54;21.70;;;9.48;;
35444;SDS011;21562;49.476;6.086;2024-03-22T10:08:20;20.55;;;11.68;;
35444;SDS011;21562;49.476;6.086;2024-03-22T10:10:46;21.55;;;9.82;;
35444;SDS011;21562;49.476;6.086;2024-03-22T10:13:12;20.90;;;12.40;;
35444;SDS011;21562;49.476;6.086;2024-03-22T10:15:37;21.25;;;11.55;;
35444;SDS011;21562;49.476;6.086;2024-03-22T10:18:03;21.98;;;11.10;;
35444;SDS011;21562;49.476;6.086;2024-03-22T10:20:29;23.33;;;12.85;;
35444;SDS011;21562;49.476;6.086;2024-03-22T10:22:55;24.38;;;12.40;;
35444;SDS011;21562;49.476;6.086;2024-03-22T10:25:25;21.13;;;10.68;;
35444;SDS011;21562;49.476;6.086;2024-03-22T10:27:53;20.05;;;11.95;;
35444;SDS011;21562;49.476;6.086;2024-03-22T10:30:19;21.38;;;10.25;;
35444;SDS011;21562;49.476;6.086;2024-03-22T10:32:45;22.60;;;12.65;;
35444;SDS011;21562;49.476;6.086;2024-03-22T10:35:13;25.23;;;13.30;;
35444;SDS011;21562;49.476;6.086;2024-03-22T10:37:39;20.40;;;11.70;;
35444;SDS011;21562;49.476;6.086;2024-03-22T10:40:05;24.48;;;12.75;;
35444;SDS011;21562;49.476;6.086;2024-03-22T10:42:33;23.40;;;11.35;;
35444;SDS011;21562;49.476;6.086;2024-03-22T10:44:59;24.08;;;13.20;;
35444;SDS011;21562;49.476;6.086;2024-03-22T10:47:27;20.80;;;12.70;;
35444;SDS011;21562;49.476;6.086;2024-03-22T10:49:56;18.23;;;10.40;;
35444;SDS011;21562;49.476;6.086;2024-03-22T10:52:31;22.90;;;13.07;;
35444;SDS011;21562;49.476;6.086;2024-03-22T10:57:54;24.92;;;13.95;;
35444;SDS011;21562;49.476;6.086;2024-03-22T11:00:33;24.88;;;14.38;;
35444;SDS011;21562;49.476;6.086;2024-03-22T11:03:03;28.02;;;14.68;;
35444;SDS011;21562;49.476;6.086;2024-03-22T11:05:29;24.55;;;14.55;;
35444;SDS011;21562;49.476;6.086;2024-03-22T11:10:33;25.52;;;15.70;;
35444;SDS011;21562;49.476;6.086;2024-03-22T11:13:05;26.50;;;15.05;;
35444;SDS011;21562;49.476;6.086;2024-03-22T11:15:33;23.77;;;12.52;;
35444;SDS011;21562;49.476;6.086;2024-03-22T11:18:00;29.10;;;12.85;;
35444;SDS011;21562;49.476;6.086;2024-03-22T11:20:26;24.50;;;13.98;;
35444;SDS011;21562;49.476;6.086;2024-03-22T11:22:52;21.17;;;9.45;;
35444;SDS011;21562;49.476;6.086;2024-03-22T11:25:18;25.60;;;12.77;;
35444;SDS011;21562;49.476;6.086;2024-03-22T11:27:48;26.27;;;15.48;;
35444;SDS011;21562;49.476;6.086;2024-03-22T11:30:15;25.90;;;14.30;;
35444;SDS011;21562;49.476;6.086;2024-03-22T11:32:40;28.38;;;14.88;;
35444;SDS011;21562;49.476;6.086;2024-03-22T11:35:10;28.35;;;14.20;;
35444;SDS011;21562;49.476;6.086;2024-03-22T11:37:40;25.55;;;14.63;;
35444;SDS011;21562;49.476;6.086;2024-03-22T11:40:09;29.95;;;16.50;;
35444;SDS011;21562;49.476;6.086;2024-03-22T11:42:42;29.40;;;15.98;;
35444;SDS011;21562;49.476;6.086;2024-03-22T11:45:14;26.23;;;15.05;;
35444;SDS011;21562;49.476;6.086;2024-03-22T11:47:41;29.67;;;16.17;;
35444;SDS011;21562;49.476;6.086;2024-03-22T11:53:30;79.90;;;20.70;;
35444;SDS011;21562;49.476;6.086;2024-03-22T11:55:57;31.73;;;16.55;;
35444;SDS011;21562;49.476;6.086;2024-03-22T11:58:26;34.45;;;18.23;;
35444;SDS011;21562;49.476;6.086;2024-03-22T12:00:51;27.08;;;16.80;;
35444;SDS011;21562;49.476;6.086;2024-03-22T12:03:17;36.55;;;17.52;;
35444;SDS011;21562;49.476;6.086;2024-03-22T12:05:43;30.67;;;16.90;;
35444;SDS011;21562;49.476;6.086;2024-03-22T12:13:20;20.17;;;11.90;;
35444;SDS011;21562;49.476;6.086;2024-03-22T12:15:46;23.20;;;11.80;;
35444;SDS011;21562;49.476;6.086;2024-03-22T12:18:12;21.73;;;7.90;;
35444;SDS011;21562;49.476;6.086;2024-03-22T12:20:38;22.80;;;11.75;;
35444;SDS011;21562;49.476;6.086;2024-03-22T12:23:04;23.20;;;12.10;;
35444;SDS011;21562;49.476;6.086;2024-03-22T12:25:29;21.77;;;12.10;;
35444;SDS011;21562;49.476;6.086;2024-03-22T12:27:55;17.50;;;7.22;;
35444;SDS011;21562;49.476;6.086;2024-03-22T12:30:21;21.10;;;10.80;;
35444;SDS011;21562;49.476;6.086;2024-03-22T12:32:47;18.67;;;10.38;;
35444;SDS011;21562;49.476;6.086;2024-03-22T12:35:12;21.65;;;10.05;;
35444;SDS011;21562;49.476;6.086;2024-03-22T12:37:38;16.88;;;10.18;;
35444;SDS011;21562;49.476;6.086;2024-03-22T12:40:05;20.60;;;8.30;;
35444;SDS011;21562;49.476;6.086;2024-03-22T12:42:33;22.13;;;9.52;;
35444;SDS011;21562;49.476;6.086;2024-03-22T12:44:59;14.93;;;8.07;;
35444;SDS011;21562;49.476;6.086;2024-03-22T12:47:24;12.63;;;7.38;;
35444;SDS011;21562;49.476;6.086;2024-03-22T12:49:50;14.68;;;7.72;;
35444;SDS011;21562;49.476;6.086;2024-03-22T12:52:16;9.57;;;5.45;;
35444;SDS011;21562;49.476;6.086;2024-03-22T12:54:42;11.63;;;5.75;;
35444;SDS011;21562;49.476;6.086;2024-03-22T12:57:07;10.07;;;5.22;;
35444;SDS011;21562;49.476;6.086;2024-03-22T12:59:33;11.35;;;5.13;;
35444;SDS011;21562;49.476;6.086;2024-03-22T13:01:59;9.65;;;4.85;;
35444;SDS011;21562;49.476;6.086;2024-03-22T13:04:26;15.48;;;6.55;;
35444;SDS011;21562;49.476;6.086;2024-03-22T13:06:52;19.50;;;7.00;;
35444;SDS011;21562;49.476;6.086;2024-03-22T13:09:18;14.18;;;6.72;;
35444;SDS011;21562;49.476;6.086;2024-03-22T13:11:46;11.68;;;5.63;;
35444;SDS011;21562;49.476;6.086;2024-03-22T13:14:13;12.50;;;5.65;;
35444;SDS011;21562;49.476;6.086;2024-03-22T13:16:39;13.15;;;5.95;;
35444;SDS011;21562;49.476;6.086;2024-03-22T13:19:05;10.50;;;5.43;;
35444;SDS011;21562;49.476;6.086;2024-03-22T13:21:33;26.50;;;13.57;;
35444;SDS011;21562;49.476;6.086;2024-03-22T13:23:59;21.63;;;8.40;;
35444;SDS011;21562;49.476;6.086;2024-03-22T13:26:25;18.23;;;7.25;;
35444;SDS011;21562;49.476;6.086;2024-03-22T13:28:50;11.10;;;6.43;;
35444;SDS011;21562;49.476;6.086;2024-03-22T13:31:16;12.10;;;5.68;;
35444;SDS011;21562;49.476;6.086;2024-03-22T13:33:42;12.07;;;6.90;;
35444;SDS011;21562;49.476;6.086;2024-03-22T13:36:08;12.63;;;6.88;;
35444;SDS011;21562;49.476;6.086;2024-03-22T13:38:34;9.27;;;5.28;;
35444;SDS011;21562;49.476;6.086;2024-03-22T13:41:00;16.35;;;6.18;;
35444;SDS011;21562;49.476;6.086;2024-03-22T13:43:28;10.57;;;5.50;;
35444;SDS011;21562;49.476;6.086;2024-03-22T13:45:54;11.07;;;6.25;;
35444;SDS011;21562;49.476;6.086;2024-03-22T13:48:23;11.70;;;5.75;;
35444;SDS011;21562;49.476;6.086;2024-03-22T13:50:53;13.77;;;5.43;;
35444;SDS011;21562;49.476;6.086;2024-03-22T13:53:19;10.90;;;5.38;;
35444;SDS011;21562;49.476;6.086;2024-03-22T13:55:49;9.30;;;5.60;;
35444;SDS011;21562;49.476;6.086;2024-03-22T13:58:15;9.98;;;5.78;;
35444;SDS011;21562;49.476;6.086;2024-03-22T14:00:41;10.90;;;5.45;;
35444;SDS011;21562;49.476;6.086;2024-03-22T14:03:07;9.68;;;5.95;;
35444;SDS011;21562;49.476;6.086;2024-03-22T14:05:33;13.40;;;4.00;;
35444;SDS011;21562;49.476;6.086;2024-03-22T14:07:59;11.80;;;6.78;;
35444;SDS011;21562;49.476;6.086;2024-03-22T14:10:25;9.43;;;5.28;;
35444;SDS011;21562;49.476;6.086;2024-03-22T14:12:56;11.32;;;5.97;;
35444;SDS011;21562;49.476;6.086;2024-03-22T14:15:22;11.25;;;6.03;;
35444;SDS011;21562;49.476;6.086;2024-03-22T14:17:50;10.20;;;5.88;;
35444;SDS011;21562;49.476;6.086;2024-03-22T14:20:16;10.63;;;5.80;;
35444;SDS011;21562;49.476;6.086;2024-03-22T14:22:42;11.68;;;6.28;;
35444;SDS011;21562;49.476;6.086;2024-03-22T14:25:08;15.07;;;6.30;;
35444;SDS011;21562;49.476;6.086;2024-03-22T14:27:35;14.93;;;6.88;;
35444;SDS011;21562;49.476;6.086;2024-03-22T14:30:01;12.02;;;6.88;;
35444;SDS011;21562;49.476;6.086;2024-03-22T14:32:31;15.25;;;7.28;;
35444;SDS011;21562;49.476;6.086;2024-03-22T14:34:57;12.60;;;7.40;;
35444;SDS011;21562;49.476;6.086;2024-03-22T14:37:23;13.98;;;6.15;;
35444;SDS011;21562;49.476;6.086;2024-03-22T14:39:48;9.18;;;5.85;;
35444;SDS011;21562;49.476;6.086;2024-03-22T14:42:14;12.10;;;5.10;;